createdAt,value
2023-05-05T00:00:57.618Z,0.42
2023-05-05T00:01:57.714Z,0.39
2023-05-05T00:02:57.887Z,0.39
2023-05-05T00:03:57.902Z,0.41
2023-05-05T00:04:57.957Z,0.43
2023-05-05T00:05:58.079Z,0.48
2023-05-05T00:06:58.132Z,0.50
2023-05-05T00:07:58.236Z,0.50
2023-05-05T00:08:58.322Z,0.51
2023-05-05T00:09:58.397Z,0.50
2023-05-05T00:10:58.510Z,0.51
2023-05-05T00:11:58.572Z,0.50
2023-05-05T00:12:58.678Z,0.51
2023-05-05T00:13:58.748Z,0.50
2023-05-05T00:14:58.853Z,0.50
2023-05-05T00:15:58.950Z,0.50
2023-05-05T00:16:59.080Z,0.51
2023-05-05T00:17:59.213Z,0.51
2023-05-05T00:18:59.335Z,0.50
2023-05-05T00:19:59.321Z,0.50
2023-05-05T00:20:59.429Z,0.51
2023-05-05T00:21:59.501Z,0.50
2023-05-05T00:22:59.595Z,0.51
2023-05-05T00:23:59.704Z,0.51
2023-05-05T00:24:59.790Z,0.51
2023-05-05T00:25:59.871Z,0.50
2023-05-05T00:26:59.988Z,0.50
2023-05-05T00:28:00.075Z,0.50
2023-05-05T00:29:00.148Z,0.51
2023-05-05T00:30:00.247Z,0.51
2023-05-05T00:31:00.415Z,0.51
2023-05-05T00:32:00.418Z,0.50
2023-05-05T00:33:00.546Z,0.50
2023-05-05T00:34:00.613Z,0.51
2023-05-05T00:35:00.705Z,0.50
2023-05-05T00:36:00.741Z,0.50
2023-05-05T00:37:00.825Z,0.50
2023-05-05T00:38:00.878Z,0.50
2023-05-05T00:39:00.971Z,0.50
2023-05-05T00:40:01.063Z,0.51
2023-05-05T00:41:01.160Z,0.51
2023-05-05T00:42:01.299Z,0.51
2023-05-05T00:43:01.332Z,0.51
2023-05-05T00:44:01.407Z,0.53
2023-05-05T00:45:01.479Z,0.51
2023-05-05T00:46:01.617Z,0.51
2023-05-05T00:47:01.679Z,0.51
2023-05-05T00:48:01.871Z,0.50
2023-05-05T00:49:01.863Z,0.50
2023-05-05T00:50:01.857Z,0.51
2023-05-05T00:51:01.919Z,0.51
2023-05-05T00:52:02.001Z,0.50
2023-05-05T00:53:02.063Z,0.50
2023-05-05T00:54:02.127Z,0.51
2023-05-05T00:55:02.214Z,0.51
2023-05-05T00:56:02.306Z,0.52
2023-05-05T00:57:02.384Z,0.52
2023-05-05T00:58:02.467Z,0.52
2023-05-05T00:59:02.514Z,0.51
2023-05-05T01:00:02.587Z,0.52
2023-05-05T01:01:02.649Z,0.53
2023-05-05T01:02:02.755Z,0.51
2023-05-05T01:03:02.769Z,0.51
2023-05-05T01:04:02.868Z,0.52
2023-05-05T01:05:02.840Z,0.51
2023-05-05T01:06:02.934Z,0.50
2023-05-05T01:07:03.046Z,0.52
2023-05-05T01:08:03.113Z,0.51
2023-05-05T01:09:03.199Z,0.52
2023-05-05T01:10:15.614Z,0.51
2023-05-05T01:11:03.314Z,0.51
2023-05-05T01:12:03.344Z,0.52
2023-05-05T01:13:03.396Z,0.52
2023-05-05T01:14:03.411Z,0.52
2023-05-05T01:15:03.431Z,0.51
2023-05-05T01:16:03.508Z,0.51
2023-05-05T01:17:03.483Z,0.51
2023-05-05T01:18:03.547Z,0.51
2023-05-05T01:19:03.538Z,0.52
2023-05-05T01:20:03.562Z,0.51
2023-05-05T01:21:03.593Z,0.51
2023-05-05T01:22:03.623Z,0.50
2023-05-05T01:23:03.655Z,0.51
2023-05-05T01:24:03.689Z,0.52
2023-05-05T01:25:03.720Z,0.52
2023-05-05T01:26:03.742Z,0.53
2023-05-05T01:27:03.765Z,0.53
2023-05-05T01:28:03.801Z,0.52
2023-05-05T01:29:03.850Z,0.53
2023-05-05T01:30:03.903Z,0.52
2023-05-05T01:31:03.943Z,0.52
2023-05-05T01:32:04.015Z,0.52
2023-05-05T01:33:03.979Z,0.52
2023-05-05T01:34:04.038Z,0.52
2023-05-05T01:35:04.050Z,0.52
2023-05-05T01:36:04.079Z,0.53
2023-05-05T01:37:04.112Z,0.52
2023-05-05T01:38:04.168Z,0.53
2023-05-05T01:39:04.178Z,0.53
2023-05-05T01:40:04.310Z,0.52
2023-05-05T01:41:04.234Z,0.52
2023-05-05T01:42:04.266Z,0.53
2023-05-05T01:43:04.309Z,0.53
2023-05-05T01:44:04.364Z,0.52
2023-05-05T01:45:04.391Z,0.53
2023-05-05T01:46:04.460Z,0.53
2023-05-05T01:47:04.467Z,0.52
2023-05-05T01:48:04.489Z,0.52
2023-05-05T01:49:04.497Z,0.53
2023-05-05T01:50:04.535Z,0.53
2023-05-05T01:51:04.566Z,0.54
2023-05-05T01:52:04.639Z,0.54
2023-05-05T01:53:04.692Z,0.53
2023-05-05T01:54:04.750Z,0.53
2023-05-05T01:55:04.848Z,0.52
2023-05-05T01:56:04.878Z,0.52
2023-05-05T01:57:04.944Z,0.52
2023-05-05T01:58:04.964Z,0.53
2023-05-05T01:59:05.017Z,0.53
2023-05-05T02:00:05.093Z,0.54
2023-05-05T02:01:05.132Z,0.54
2023-05-05T02:02:05.250Z,0.52
2023-05-05T02:03:05.260Z,0.53
2023-05-05T02:04:05.223Z,0.53
2023-05-05T02:05:05.278Z,0.53
2023-05-05T02:06:05.343Z,0.53
2023-05-05T02:07:05.379Z,0.53
2023-05-05T02:08:05.412Z,0.53
2023-05-05T02:09:05.457Z,0.53
2023-05-05T02:10:05.631Z,0.53
2023-05-05T02:11:05.525Z,0.54
2023-05-05T02:12:05.559Z,0.54
2023-05-05T02:13:05.700Z,0.54
2023-05-05T02:14:05.630Z,0.54
2023-05-05T02:15:05.702Z,0.55
2023-05-05T02:16:05.825Z,0.54
2023-05-05T02:17:05.790Z,0.54
2023-05-05T02:18:05.880Z,0.54
2023-05-05T02:19:05.862Z,0.54
2023-05-05T02:20:05.985Z,0.54
2023-05-05T02:21:05.936Z,0.53
2023-05-05T02:22:05.988Z,0.55
2023-05-05T02:23:06.118Z,0.54
2023-05-05T02:24:06.090Z,0.54
2023-05-05T02:25:06.106Z,0.54
2023-05-05T02:26:06.172Z,0.55
2023-05-05T02:27:06.189Z,0.55
2023-05-05T02:28:06.247Z,0.53
2023-05-05T02:29:06.287Z,0.56
2023-05-05T02:30:06.735Z,0.55
2023-05-05T02:31:06.394Z,0.54
2023-05-05T02:32:06.407Z,0.55
2023-05-05T02:33:06.597Z,0.54
2023-05-05T02:34:06.505Z,0.53
2023-05-05T02:35:06.527Z,0.54
2023-05-05T02:36:06.572Z,0.54
2023-05-05T02:37:06.607Z,0.54
2023-05-05T02:38:06.680Z,0.54
2023-05-05T02:39:06.698Z,0.53
2023-05-05T02:40:06.999Z,0.54
2023-05-05T02:41:06.763Z,0.54
2023-05-05T02:42:06.790Z,0.54
2023-05-05T02:43:06.951Z,0.54
2023-05-05T02:44:06.871Z,0.54
2023-05-05T02:45:06.900Z,0.55
2023-05-05T02:46:06.961Z,0.54
2023-05-05T02:47:06.968Z,0.54
2023-05-05T02:48:07.038Z,0.55
2023-05-05T02:49:07.045Z,0.55
2023-05-05T02:50:07.430Z,0.54
2023-05-05T02:51:07.126Z,0.54
2023-05-05T02:52:07.166Z,0.54
2023-05-05T02:53:07.216Z,0.55
2023-05-05T02:54:07.234Z,0.55
2023-05-05T02:55:07.279Z,0.54
2023-05-05T02:56:07.312Z,0.55
2023-05-05T02:57:07.347Z,0.54
2023-05-05T02:58:07.388Z,0.55
2023-05-05T02:59:07.424Z,0.55
2023-05-05T03:00:07.713Z,0.54
2023-05-05T03:01:07.571Z,0.55
2023-05-05T03:02:07.548Z,0.55
2023-05-05T03:03:07.692Z,0.54
2023-05-05T03:04:07.723Z,0.54
2023-05-05T03:05:07.680Z,0.54
2023-05-05T03:06:07.759Z,0.54
2023-05-05T03:07:07.782Z,0.54
2023-05-05T03:08:07.826Z,0.54
2023-05-05T03:09:07.863Z,0.54
2023-05-05T03:10:08.283Z,0.53
2023-05-05T03:11:07.948Z,0.54
2023-05-05T03:12:08.000Z,0.55
2023-05-05T03:13:08.208Z,0.53
2023-05-05T03:14:08.088Z,0.53
2023-05-05T03:15:08.134Z,0.55
2023-05-05T03:16:08.197Z,0.54
2023-05-05T03:17:08.214Z,0.55
2023-05-05T03:18:08.257Z,0.54
2023-05-05T03:19:08.295Z,0.54
2023-05-05T03:20:08.462Z,0.54
2023-05-05T03:21:08.394Z,0.53
2023-05-05T03:22:08.448Z,0.54
2023-05-05T03:23:08.469Z,0.53
2023-05-05T03:24:08.502Z,0.53
2023-05-05T03:25:08.557Z,0.53
2023-05-05T03:26:08.581Z,0.53
2023-05-05T03:27:08.648Z,0.53
2023-05-05T03:28:08.670Z,0.54
2023-05-05T03:29:08.722Z,0.54
2023-05-05T03:30:09.064Z,0.53
2023-05-05T03:31:08.817Z,0.54
2023-05-05T03:32:08.870Z,0.53
2023-05-05T03:33:08.925Z,0.53
2023-05-05T03:34:08.938Z,0.53
2023-05-05T03:35:08.975Z,0.55
2023-05-05T03:36:09.040Z,0.53
2023-05-05T03:37:09.072Z,0.53
2023-05-05T03:38:09.146Z,0.54
2023-05-05T03:39:09.161Z,0.54
2023-05-05T03:40:09.366Z,0.54
2023-05-05T03:41:09.260Z,0.53
2023-05-05T03:42:09.310Z,0.54
2023-05-05T03:43:09.342Z,0.54
2023-05-05T03:44:09.396Z,0.55
2023-05-05T03:45:09.445Z,0.54
2023-05-05T03:46:09.533Z,0.53
2023-05-05T03:47:09.545Z,0.54
2023-05-05T03:48:09.732Z,0.53
2023-05-05T03:49:09.641Z,0.53
2023-05-05T03:50:09.782Z,0.54
2023-05-05T03:51:09.746Z,0.54
2023-05-05T03:52:09.800Z,0.54
2023-05-05T03:53:09.858Z,0.53
2023-05-05T03:54:09.911Z,0.54
2023-05-05T03:55:09.947Z,0.53
2023-05-05T03:56:10.001Z,0.54
2023-05-05T03:57:10.053Z,0.54
2023-05-05T03:58:10.088Z,0.54
2023-05-05T03:59:10.130Z,0.52
2023-05-05T04:00:10.192Z,0.54
2023-05-05T04:01:10.242Z,0.53
2023-05-05T04:02:10.304Z,0.52
2023-05-05T04:03:10.554Z,0.54
2023-05-05T04:04:10.444Z,0.54
2023-05-05T04:05:10.428Z,0.53
2023-05-05T04:06:10.485Z,0.53
2023-05-05T04:07:10.548Z,0.53
2023-05-05T04:08:10.598Z,0.53
2023-05-05T04:09:10.634Z,0.53
2023-05-05T04:10:10.760Z,0.54
2023-05-05T04:11:10.728Z,0.53
2023-05-05T04:12:10.783Z,0.53
2023-05-05T04:13:11.037Z,0.53
2023-05-05T04:14:10.883Z,0.55
2023-05-05T04:15:10.962Z,0.55
2023-05-05T04:16:11.079Z,0.53
2023-05-05T04:17:11.052Z,0.54
2023-05-05T04:18:11.156Z,0.54
2023-05-05T04:19:11.151Z,0.54
2023-05-05T04:20:11.284Z,0.54
2023-05-05T04:21:11.259Z,0.54
2023-05-05T04:22:11.321Z,0.55
2023-05-05T04:23:11.375Z,0.54
2023-05-05T04:24:11.419Z,0.55
2023-05-05T04:25:11.473Z,0.54
2023-05-05T04:26:11.547Z,0.55
2023-05-05T04:27:11.567Z,0.54
2023-05-05T04:28:11.617Z,0.53
2023-05-05T04:29:11.660Z,0.54
2023-05-05T04:30:11.716Z,0.55
2023-05-05T04:31:11.785Z,0.55
2023-05-05T04:32:11.812Z,0.54
2023-05-05T04:33:11.864Z,0.53
2023-05-05T04:34:11.919Z,0.54
2023-05-05T04:35:11.977Z,0.54
2023-05-05T04:36:12.018Z,0.55
2023-05-05T04:37:12.074Z,0.55
2023-05-05T04:38:12.128Z,0.54
2023-05-05T04:39:12.168Z,0.55
2023-05-05T04:40:12.241Z,0.55
2023-05-05T04:41:12.279Z,0.54
2023-05-05T04:42:12.350Z,0.55
2023-05-05T04:43:12.377Z,0.55
2023-05-05T04:44:12.435Z,0.54
2023-05-05T04:45:12.485Z,0.56
2023-05-05T04:46:12.568Z,0.55
2023-05-05T04:47:14.550Z,0.54
2023-05-05T04:48:12.620Z,0.54
2023-05-05T04:49:12.658Z,0.56
2023-05-05T04:50:12.718Z,0.56
2023-05-05T04:51:12.752Z,0.57
2023-05-05T04:52:12.762Z,0.56
2023-05-05T04:53:12.801Z,0.56
2023-05-05T04:54:12.838Z,0.56
2023-05-05T04:55:12.859Z,0.55
2023-05-05T04:56:12.905Z,0.55
2023-05-05T04:57:12.940Z,0.54
2023-05-05T04:58:13.000Z,0.55
2023-05-05T04:59:13.005Z,0.55
2023-05-05T05:00:13.061Z,0.56
2023-05-05T05:01:13.096Z,0.55
2023-05-05T05:02:13.177Z,0.55
2023-05-05T05:03:13.224Z,0.55
2023-05-05T05:04:13.197Z,0.55
2023-05-05T05:05:13.268Z,0.54
2023-05-05T05:06:13.254Z,0.54
2023-05-05T05:07:13.288Z,0.53
2023-05-05T05:08:13.318Z,0.54
2023-05-05T05:09:13.334Z,0.54
2023-05-05T05:10:13.361Z,0.50
2023-05-05T05:11:13.389Z,0.51
2023-05-05T05:12:13.426Z,0.50
2023-05-05T05:13:13.497Z,0.50
2023-05-05T05:14:13.518Z,0.51
2023-05-05T05:15:13.532Z,0.51
2023-05-05T05:16:14.022Z,0.51
2023-05-05T05:17:13.594Z,0.50
2023-05-05T05:18:13.945Z,0.52
2023-05-05T05:19:13.683Z,0.51
2023-05-05T05:20:13.689Z,0.52
2023-05-05T05:21:13.952Z,0.52
2023-05-05T05:22:13.741Z,0.50
2023-05-05T05:23:13.779Z,0.50
2023-05-05T05:24:13.826Z,0.51
2023-05-05T05:25:13.857Z,0.51
2023-05-05T05:26:13.887Z,0.50
2023-05-05T05:27:13.927Z,0.51
2023-05-05T05:28:14.450Z,0.50
2023-05-05T05:29:13.973Z,0.52
2023-05-05T05:30:14.025Z,0.51
2023-05-05T05:31:14.035Z,0.50
2023-05-05T05:32:14.129Z,0.50
2023-05-05T05:33:14.094Z,0.50
2023-05-05T05:34:14.138Z,0.51
2023-05-05T05:35:14.158Z,0.52
2023-05-05T05:36:14.184Z,0.52
2023-05-05T05:37:14.218Z,0.52
2023-05-05T05:38:14.279Z,0.52
2023-05-05T05:39:14.282Z,0.51
2023-05-05T05:40:14.318Z,0.50
2023-05-05T05:41:14.452Z,0.52
2023-05-05T05:42:14.423Z,0.51
2023-05-05T05:43:14.487Z,0.52
2023-05-05T05:44:14.578Z,0.52
2023-05-05T05:45:14.628Z,0.53
2023-05-05T05:46:14.987Z,0.53
2023-05-05T05:47:14.777Z,0.52
2023-05-05T05:48:14.970Z,0.52
2023-05-05T05:49:14.903Z,0.54
2023-05-05T05:50:15.010Z,0.55
2023-05-05T05:51:22.841Z,0.58
2023-05-05T05:52:15.063Z,0.58
2023-05-05T05:53:31.061Z,0.59
2023-05-05T05:54:18.352Z,0.59
2023-05-05T05:55:15.160Z,0.59
2023-05-05T05:57:15.214Z,0.59
2023-05-05T05:58:15.255Z,0.61
2023-05-05T05:59:15.457Z,0.65
2023-05-05T06:00:15.599Z,0.72
2023-05-05T06:01:15.325Z,0.81
2023-05-05T06:02:31.300Z,0.82
2023-05-05T06:03:18.900Z,0.83
2023-05-05T06:04:15.450Z,0.83
2023-05-05T06:07:22.869Z,0.83
2023-05-05T06:08:16.855Z,0.83
2023-05-05T06:09:15.530Z,0.83
2023-05-05T06:10:27.345Z,0.85
2023-05-05T06:12:16.655Z,0.83
2023-05-05T06:14:32.281Z,0.83
2023-05-05T06:15:18.873Z,0.84
2023-05-05T06:16:15.708Z,0.84
2023-05-05T06:17:15.725Z,0.88
2023-05-05T06:18:16.340Z,0.95
2023-05-05T06:19:47.738Z,1.07
2023-05-05T06:20:15.808Z,0.84
2023-05-05T06:21:15.805Z,0.88
2023-05-05T06:22:16.821Z,0.94
2023-05-05T06:23:16.240Z,1.04
2023-05-05T06:24:15.885Z,1.18
2023-05-05T06:25:15.888Z,1.20
2023-05-05T06:26:15.964Z,1.13
2023-05-05T06:27:15.957Z,1.16
2023-05-05T06:28:16.184Z,1.18
2023-05-05T06:29:16.483Z,1.18
2023-05-05T06:30:16.030Z,1.17
2023-05-05T06:31:16.076Z,1.19
2023-05-05T06:32:16.176Z,1.16
2023-05-05T06:33:16.980Z,1.16
2023-05-05T06:34:16.494Z,1.13
2023-05-05T06:35:16.346Z,1.11
2023-05-05T06:36:16.476Z,1.13
2023-05-05T06:37:16.493Z,1.12
2023-05-05T06:38:17.554Z,1.08
2023-05-05T06:39:16.998Z,1.07
2023-05-05T06:40:16.683Z,1.02
2023-05-05T06:41:16.732Z,0.98
2023-05-05T06:42:16.794Z,0.97
2023-05-05T06:43:16.853Z,1.02
2023-05-05T06:44:17.998Z,1.02
2023-05-05T06:45:24.367Z,0.99
2023-05-05T06:46:17.360Z,0.99
2023-05-05T06:47:17.542Z,0.99
2023-05-05T06:48:17.032Z,1.00
2023-05-05T06:49:17.500Z,1.00
2023-05-05T06:50:17.126Z,1.02
2023-05-05T06:51:17.048Z,1.08
2023-05-05T06:52:17.079Z,1.08
2023-05-05T06:53:17.098Z,1.06
2023-05-05T12:17:21.294Z,0.50
2023-05-05T12:18:22.094Z,0.50
2023-05-05T12:19:22.071Z,0.50
2023-05-05T12:20:22.069Z,0.50
2023-05-05T12:21:22.059Z,0.50
2023-05-05T12:22:22.101Z,0.50
2023-05-05T12:23:22.076Z,0.50
2023-05-05T12:24:22.069Z,0.50
2023-05-05T12:25:22.104Z,0.50
2023-05-05T12:26:22.057Z,0.51
2023-05-05T12:27:22.069Z,0.50
2023-05-05T12:28:22.059Z,0.50
2023-05-05T12:29:22.054Z,0.50
2023-05-05T12:30:22.135Z,0.52
2023-05-05T12:31:22.090Z,0.50
2023-05-05T12:32:22.103Z,0.50
2023-05-05T12:33:22.278Z,0.51
2023-05-05T12:34:22.061Z,0.51
2023-05-05T12:35:22.072Z,0.51
2023-05-05T12:36:22.276Z,0.51
2023-05-05T12:37:22.098Z,0.50
2023-05-05T12:38:22.097Z,0.50
2023-05-05T12:39:22.079Z,0.50
2023-05-05T12:40:22.085Z,0.51
2023-05-05T12:41:22.086Z,0.51
2023-05-05T12:42:22.136Z,0.51
2023-05-05T12:43:22.191Z,0.50
2023-05-05T12:44:22.268Z,0.51
2023-05-05T12:45:22.327Z,0.51
2023-05-05T12:46:22.520Z,0.52
2023-05-05T12:47:22.778Z,0.51
2023-05-05T12:48:22.524Z,0.52
2023-05-05T12:49:22.695Z,0.53
2023-05-05T12:50:22.785Z,0.53
2023-05-05T12:51:22.739Z,0.52
2023-05-05T12:52:22.813Z,0.52
2023-05-05T12:53:22.896Z,0.50
2023-05-05T12:54:22.964Z,0.52
2023-05-05T12:55:23.287Z,0.52
2023-05-05T12:56:23.068Z,0.53
2023-05-05T12:57:23.127Z,0.53
2023-05-05T12:58:23.210Z,0.51
2023-05-05T12:59:23.345Z,0.51
2023-05-05T13:00:23.330Z,0.52
2023-05-05T13:01:23.512Z,0.53
2023-05-05T13:02:23.534Z,0.52
2023-05-05T13:03:23.713Z,0.52
2023-05-05T13:04:23.581Z,0.50
2023-05-05T13:05:23.911Z,0.51
2023-05-05T13:06:23.659Z,0.53
2023-05-05T13:07:23.717Z,0.50
2023-05-05T13:08:23.785Z,0.50
2023-05-05T13:09:23.834Z,0.52
2023-05-05T13:10:23.881Z,0.56
2023-05-05T13:11:23.940Z,0.55
2023-05-05T13:12:25.221Z,0.59
2023-05-05T13:13:24.050Z,0.64
2023-05-05T13:14:24.110Z,0.70
2023-05-05T13:15:24.191Z,0.71
2023-05-05T13:16:24.336Z,0.76
2023-05-05T13:17:24.338Z,0.97
2023-05-05T13:18:24.372Z,1.20
2023-05-05T13:19:24.414Z,1.18
2023-05-05T13:20:24.473Z,1.33
2023-05-05T13:21:24.671Z,1.41
2023-05-05T13:22:24.615Z,1.21
2023-05-05T13:23:25.921Z,1.35
2023-05-05T13:24:31.656Z,1.26
2023-05-05T13:25:24.796Z,1.27
2023-05-05T13:26:24.727Z,1.27
2023-05-05T13:27:27.916Z,1.30
2023-05-05T13:28:24.730Z,1.27
2023-05-05T13:29:29.546Z,1.23
2023-05-05T13:30:24.725Z,1.27
2023-05-05T13:31:24.770Z,1.27
2023-05-05T13:32:24.743Z,1.25
2023-05-05T13:33:24.688Z,1.17
2023-05-05T13:34:24.703Z,1.12
2023-05-05T13:35:24.688Z,1.11
2023-05-05T13:36:24.701Z,1.13
2023-05-05T13:37:24.803Z,1.25
2023-05-05T13:38:24.678Z,1.26
2023-05-05T13:39:24.668Z,1.33
2023-05-05T13:40:25.956Z,1.40
2023-05-05T13:41:24.673Z,1.44
2023-05-05T13:42:24.680Z,1.46
2023-05-05T13:43:24.730Z,1.39
2023-05-05T13:44:24.778Z,1.38
2023-05-05T13:45:24.823Z,1.40
2023-05-05T13:46:24.970Z,1.42
2023-05-05T13:47:25.062Z,1.41
2023-05-05T13:48:25.308Z,1.39
2023-05-05T13:49:25.071Z,1.41
2023-05-05T13:50:25.074Z,1.42
2023-05-05T13:51:25.125Z,1.38
2023-05-05T13:52:25.158Z,1.34
2023-05-05T13:53:25.364Z,1.34
2023-05-05T13:54:25.231Z,1.33
2023-05-05T13:55:25.226Z,1.30
2023-05-05T13:56:25.302Z,1.26
2023-05-05T13:57:25.266Z,1.24
2023-05-05T13:58:25.336Z,1.20
2023-05-05T13:59:25.312Z,1.23
2023-05-05T14:00:25.740Z,1.19
2023-05-05T14:01:25.337Z,1.21
2023-05-05T14:02:25.520Z,1.19
2023-05-05T14:03:25.413Z,1.14
2023-05-05T14:04:25.599Z,1.19
2023-05-05T14:05:25.459Z,1.19
2023-05-05T14:06:25.480Z,1.15
2023-05-05T14:07:25.481Z,1.17
2023-05-05T14:08:25.524Z,1.13
2023-05-05T14:09:26.066Z,1.12
2023-05-05T14:10:25.497Z,1.17
2023-05-05T14:11:25.460Z,1.17
2023-05-05T14:12:25.453Z,1.17
2023-05-05T14:13:25.451Z,1.17
2023-05-05T14:14:25.443Z,1.15
2023-05-05T14:15:25.825Z,1.10
2023-05-05T14:16:25.492Z,1.12
2023-05-05T14:17:25.534Z,1.11
2023-05-05T14:18:25.481Z,1.03
2023-05-05T14:19:25.488Z,0.98
2023-05-05T14:20:25.473Z,0.98
2023-05-05T14:21:25.499Z,0.92
2023-05-05T14:22:25.497Z,0.90
2023-05-05T14:23:25.484Z,0.90
2023-05-05T14:24:25.485Z,0.88
2023-05-05T14:25:25.617Z,0.86
2023-05-05T14:26:25.474Z,0.90
2023-05-05T14:27:25.463Z,0.89
2023-05-05T14:28:25.513Z,0.89
2023-05-05T14:29:25.454Z,0.90
2023-05-05T14:30:25.444Z,0.92
2023-05-05T14:31:25.490Z,0.91
2023-05-05T14:32:25.485Z,0.88
2023-05-05T14:33:25.433Z,0.93
2023-05-05T14:34:25.819Z,0.87
2023-05-05T14:35:25.432Z,0.85
2023-05-05T14:36:25.447Z,0.89
2023-05-05T14:37:25.450Z,0.87
2023-05-05T14:38:25.485Z,0.85
2023-05-05T14:39:25.818Z,0.82
2023-05-05T14:40:25.461Z,0.85
2023-05-05T14:41:25.554Z,0.83
2023-05-05T14:42:25.463Z,0.83
2023-05-05T14:43:25.471Z,0.80
2023-05-05T14:44:25.820Z,0.84
2023-05-05T14:45:25.474Z,0.81
2023-05-05T14:46:25.891Z,0.81
2023-05-05T14:47:25.515Z,0.79
2023-05-05T14:48:25.493Z,0.77
2023-05-05T14:49:25.487Z,0.74
2023-05-05T14:50:25.523Z,0.74
2023-05-05T14:51:25.493Z,0.77
2023-05-05T14:52:25.503Z,0.78
2023-05-05T14:53:25.504Z,0.77
2023-05-05T14:54:28.612Z,0.74
2023-05-05T14:55:25.522Z,0.74
2023-05-05T14:56:25.515Z,0.74
2023-05-05T14:57:25.588Z,0.73
2023-05-05T14:58:25.522Z,0.73
2023-05-05T14:59:25.512Z,0.75
2023-05-05T15:00:25.525Z,0.72
2023-05-05T15:01:25.563Z,0.74
2023-05-05T15:02:25.627Z,0.71
2023-05-05T15:03:25.654Z,0.70
2023-05-05T15:04:25.515Z,0.71
2023-05-05T15:05:25.883Z,0.71
2023-05-05T15:06:25.508Z,0.74
2023-05-05T15:07:25.503Z,0.72
2023-05-05T15:08:25.497Z,0.74
2023-05-05T15:09:25.484Z,0.72
2023-05-05T15:10:25.502Z,0.71
2023-05-05T15:11:25.488Z,0.70
2023-05-05T15:12:25.485Z,0.68
2023-05-05T15:13:25.503Z,0.70
2023-05-05T15:14:25.476Z,0.69
2023-05-05T15:15:25.462Z,0.69
2023-05-05T15:16:25.486Z,0.69
2023-05-05T15:17:25.506Z,0.72
2023-05-05T15:18:25.471Z,0.72
2023-05-05T15:19:25.468Z,0.72
2023-05-05T15:20:25.477Z,0.73
2023-05-05T15:21:25.482Z,0.73
2023-05-05T15:22:25.462Z,0.71
2023-05-05T15:23:25.457Z,0.65
2023-05-05T15:24:25.462Z,0.60
2023-05-05T15:25:25.465Z,0.55
2023-05-05T15:26:25.474Z,0.54
2023-05-05T15:27:25.463Z,0.55
2023-05-05T15:28:25.471Z,0.54
2023-05-05T15:29:26.020Z,0.55
2023-05-05T15:30:25.453Z,0.57
2023-05-05T15:31:25.524Z,0.60
2023-05-05T15:32:25.559Z,0.63
2023-05-05T15:33:25.446Z,0.64
2023-05-05T15:34:25.435Z,0.64
2023-05-05T15:35:25.440Z,0.67
2023-05-05T15:36:25.429Z,0.64
2023-05-05T15:37:25.430Z,0.69
2023-05-05T15:38:25.435Z,0.67
2023-05-05T15:39:25.519Z,0.66
2023-05-05T15:40:25.507Z,0.69
2023-05-05T15:41:25.544Z,0.72
2023-05-05T15:42:25.583Z,0.75
2023-05-05T15:43:25.620Z,0.78
2023-05-05T15:44:25.670Z,0.79
2023-05-05T15:45:25.825Z,0.82
2023-05-05T15:46:25.778Z,0.85
2023-05-05T15:47:25.809Z,0.89
2023-05-05T15:48:25.797Z,0.85
2023-05-05T15:49:25.837Z,0.88
2023-05-05T15:50:25.872Z,0.91
2023-05-05T15:51:25.914Z,0.92
2023-05-05T15:52:25.960Z,0.93
2023-05-05T15:53:25.988Z,0.91
2023-05-05T15:54:26.041Z,0.95
2023-05-05T15:55:26.105Z,0.97
2023-05-05T15:56:26.132Z,0.97
2023-05-05T15:57:26.159Z,1.00
2023-05-05T15:58:26.211Z,1.01
2023-05-05T15:59:26.242Z,1.02
2023-05-05T16:00:26.281Z,1.06
2023-05-05T16:01:26.485Z,1.05
2023-05-05T16:02:26.462Z,1.09
2023-05-05T16:03:26.477Z,1.11
2023-05-05T16:04:26.520Z,1.08
2023-05-05T16:05:26.508Z,1.08
2023-05-05T16:06:26.541Z,1.14
2023-05-05T16:07:26.892Z,1.16
2023-05-05T16:08:26.881Z,1.17
2023-05-05T16:09:26.722Z,1.19
2023-05-05T16:10:26.727Z,1.20
2023-05-05T16:11:26.785Z,1.19
2023-05-05T16:12:26.820Z,1.20
2023-05-05T16:13:26.872Z,1.24
2023-05-05T16:14:26.906Z,1.27
2023-05-05T16:15:26.957Z,1.26
2023-05-05T16:16:27.033Z,1.28
2023-05-05T16:17:27.258Z,1.32
2023-05-05T16:18:27.140Z,1.37
2023-05-05T16:19:30.385Z,1.38
2023-05-05T16:20:27.167Z,1.38
2023-05-05T16:21:27.166Z,1.38
2023-05-05T16:22:27.168Z,1.40
2023-05-05T16:23:27.183Z,1.43
2023-05-05T16:24:27.185Z,1.42
2023-05-05T16:25:27.203Z,1.46
2023-05-05T16:26:27.222Z,1.47
2023-05-05T16:27:27.209Z,1.47
2023-05-05T16:28:27.227Z,1.53
2023-05-05T16:29:27.225Z,1.54
2023-05-05T16:30:27.237Z,1.57
2023-05-05T16:31:27.243Z,1.58
2023-05-05T16:32:27.302Z,1.54
2023-05-05T16:33:27.285Z,1.62
2023-05-05T16:34:27.272Z,1.61
2023-05-05T16:35:27.283Z,1.66
2023-05-05T16:36:27.298Z,1.63
2023-05-05T16:37:27.300Z,1.67
2023-05-05T16:38:27.313Z,1.70
2023-05-05T16:39:27.323Z,1.69
2023-05-05T16:40:27.334Z,1.70
2023-05-05T16:41:27.416Z,1.73
2023-05-05T16:42:27.370Z,1.76
2023-05-05T16:43:27.378Z,1.77
2023-05-05T16:44:27.408Z,1.78
2023-05-05T16:45:28.219Z,1.78
2023-05-05T16:46:27.443Z,1.76
2023-05-05T16:47:27.462Z,1.75
2023-05-05T16:48:27.497Z,1.81
2023-05-05T16:49:27.709Z,1.84
2023-05-05T16:50:27.624Z,1.83
2023-05-05T16:51:27.692Z,1.91
2023-05-05T16:52:27.755Z,1.88
2023-05-05T16:53:27.800Z,1.90
2023-05-05T16:54:27.878Z,1.92
2023-05-05T16:55:27.933Z,1.94
2023-05-05T16:56:28.009Z,1.91
2023-05-05T16:57:28.064Z,1.95
2023-05-05T16:58:28.158Z,1.95
2023-05-05T16:59:30.286Z,1.98
2023-05-05T17:00:28.207Z,1.98
2023-05-05T17:01:28.227Z,1.98
2023-05-05T17:02:28.878Z,1.99
2023-05-05T17:03:28.249Z,2.02
2023-05-05T17:04:28.260Z,2.03
2023-05-05T17:05:28.482Z,2.03
2023-05-05T17:06:28.297Z,2.07
2023-05-05T17:07:28.311Z,2.08
2023-05-05T17:08:28.315Z,2.08
2023-05-05T17:09:28.334Z,2.13
2023-05-05T17:10:28.342Z,2.08
2023-05-05T17:11:28.353Z,2.11
2023-05-05T17:12:28.358Z,2.08
2023-05-05T17:13:28.373Z,2.14
2023-05-05T17:14:28.359Z,2.13
2023-05-05T17:15:28.357Z,2.19
2023-05-05T17:16:28.474Z,2.22
2023-05-05T17:17:28.517Z,2.23
2023-05-05T17:18:28.567Z,2.16
2023-05-05T17:19:28.649Z,2.14
2023-05-05T17:20:28.714Z,2.16
2023-05-05T17:21:28.894Z,2.22
2023-05-05T17:22:28.870Z,2.24
2023-05-05T17:23:28.943Z,2.19
2023-05-05T17:24:29.025Z,2.24
2023-05-05T17:25:29.100Z,2.27
2023-05-05T17:26:29.175Z,2.30
2023-05-05T17:27:29.254Z,2.20
2023-05-05T17:28:29.333Z,2.23
2023-05-05T17:29:29.425Z,2.26
2023-05-05T17:30:29.490Z,2.28
2023-05-05T17:31:29.565Z,2.26
2023-05-05T17:32:29.687Z,2.35
2023-05-05T17:33:29.723Z,2.34
2023-05-05T17:34:29.795Z,2.32
2023-05-05T17:35:29.865Z,2.30
2023-05-05T17:36:29.952Z,2.31
2023-05-05T17:37:30.136Z,2.35
2023-05-05T17:38:30.105Z,2.39
2023-05-05T17:39:30.192Z,2.39
2023-05-05T17:40:30.501Z,2.37
2023-05-05T17:41:31.158Z,2.38
2023-05-05T17:42:31.115Z,2.43
2023-05-05T17:43:30.718Z,2.39
2023-05-05T17:44:31.202Z,2.39
2023-05-05T17:45:31.043Z,2.43
2023-05-05T17:46:31.151Z,2.42
2023-05-05T17:47:31.090Z,2.42
2023-05-05T17:48:30.865Z,2.44
2023-05-05T17:49:30.897Z,2.51
2023-05-05T17:50:30.967Z,2.44
2023-05-05T17:51:30.956Z,2.44
2023-05-05T17:52:30.973Z,2.45
2023-05-05T17:53:31.088Z,2.47
2023-05-05T17:54:31.016Z,2.38
2023-05-05T17:55:31.035Z,2.45
2023-05-05T17:56:31.048Z,2.44
2023-05-05T17:57:31.057Z,2.48
2023-05-05T17:58:31.076Z,2.47
2023-05-05T17:59:31.097Z,2.44
2023-05-05T18:00:31.124Z,2.49
2023-05-05T18:01:31.190Z,2.48
2023-05-05T18:02:31.259Z,2.52
2023-05-05T18:03:31.422Z,2.50
2023-05-05T18:04:31.208Z,2.48
2023-05-05T18:05:31.225Z,2.51
2023-05-05T18:06:31.268Z,2.54
2023-05-05T18:07:31.289Z,2.53
2023-05-05T18:08:31.314Z,2.55
2023-05-05T18:09:31.353Z,2.50
2023-05-05T18:10:31.353Z,2.58
2023-05-05T18:11:31.398Z,2.56
2023-05-05T18:12:31.447Z,2.53
2023-05-05T18:13:31.413Z,2.51
2023-05-05T18:14:31.441Z,2.56
2023-05-05T18:15:31.489Z,2.57
2023-05-05T18:16:31.498Z,2.60
2023-05-05T18:17:31.527Z,2.57
2023-05-05T18:18:31.593Z,2.65
2023-05-05T18:19:31.573Z,2.55
2023-05-05T18:20:31.615Z,2.56
2023-05-05T18:21:31.655Z,2.60
2023-05-05T18:22:31.691Z,2.63
2023-05-05T18:23:31.732Z,2.61
2023-05-05T18:24:31.734Z,2.60
2023-05-05T18:25:31.807Z,2.62
2023-05-05T18:26:31.831Z,2.54
2023-05-05T18:27:31.795Z,2.59
2023-05-05T18:28:31.830Z,2.63
2023-05-05T18:29:31.855Z,2.65
2023-05-05T18:30:31.889Z,2.60
2023-05-05T18:31:32.001Z,2.65
2023-05-05T18:32:32.064Z,2.59
2023-05-05T18:33:32.006Z,2.62
2023-05-05T18:34:32.009Z,2.65
2023-05-05T18:35:32.029Z,2.66
2023-05-05T18:36:32.079Z,2.66
2023-05-05T18:37:32.107Z,2.66
2023-05-05T18:38:32.145Z,2.65
2023-05-05T18:39:32.185Z,2.65
2023-05-05T18:40:32.243Z,2.61
2023-05-05T18:41:32.400Z,2.61
2023-05-05T18:42:32.329Z,2.47
2023-05-05T18:43:32.371Z,2.49
2023-05-05T18:44:32.408Z,2.50
2023-05-05T18:45:32.483Z,1.78
2023-05-05T18:46:32.506Z,1.35
2023-05-05T18:47:32.497Z,1.31